sensor_id;sensor_type;location;lat;lon;timestamp;pressure;altitude;pressure_sealevel;temperature;humidity
59513;BME280;45330;51.634;5.562;2023-09-30T00:00:25;102398.63;;;10.57;100.00
59513;BME280;45330;51.634;5.562;2023-09-30T00:02:51;102416.94;;;10.61;100.00
59513;BME280;45330;51.634;5.562;2023-09-30T00:05:16;102397.63;;;10.50;100.00
59513;BME280;45330;51.634;5.562;2023-09-30T00:07:45;102419.53;;;10.61;100.00
59513;BME280;45330;51.634;5.562;2023-09-30T00:10:10;102418.72;;;10.64;100.00
59513;BME280;45330;51.634;5.562;2023-09-30T00:12:36;102402.00;;;10.51;100.00
59513;BME280;45330;51.634;5.562;2023-09-30T00:15:01;102409.13;;;10.61;100.00
59513;BME280;45330;51.634;5.562;2023-09-30T00:17:27;102404.59;;;10.50;100.00
59513;BME280;45330;51.634;5.562;2023-09-30T00:19:53;102430.84;;;10.62;100.00
59513;BME280;45330;51.634;5.562;2023-09-30T00:22:18;102426.50;;;10.61;100.00
59513;BME280;45330;51.634;5.562;2023-09-30T00:24:43;102425.56;;;10.59;100.00
59513;BME280;45330;51.634;5.562;2023-09-30T00:27:09;102420.41;;;10.60;100.00
59513;BME280;45330;51.634;5.562;2023-09-30T00:29:34;102423.88;;;10.61;100.00
59513;BME280;45330;51.634;5.562;2023-09-30T00:32:00;102427.31;;;10.60;100.00
59513;BME280;45330;51.634;5.562;2023-09-30T00:34:26;102392.31;;;10.42;100.00
59513;BME280;45330;51.634;5.562;2023-09-30T00:36:51;102402.75;;;10.44;100.00
59513;BME280;45330;51.634;5.562;2023-09-30T00:39:16;102432.41;;;10.52;100.00
59513;BME280;45330;51.634;5.562;2023-09-30T00:41:42;102444.59;;;10.55;100.00
59513;BME280;45330;51.634;5.562;2023-09-30T00:44:07;102421.78;;;10.43;100.00
59513;BME280;45330;51.634;5.562;2023-09-30T00:46:35;102446.22;;;10.50;100.00
59513;BME280;45330;51.634;5.562;2023-09-30T00:49:02;102426.88;;;10.35;100.00
59513;BME280;45330;51.634;5.562;2023-09-30T00:51:28;102452.19;;;10.44;100.00
59513;BME280;45330;51.634;5.562;2023-09-30T00:53:56;102431.88;;;10.29;100.00
59513;BME280;45330;51.634;5.562;2023-09-30T00:56:24;102442.38;;;10.34;100.00
59513;BME280;45330;51.634;5.562;2023-09-30T00:58:51;102411.81;;;10.23;100.00
59513;BME280;45330;51.634;5.562;2023-09-30T01:01:17;102426.75;;;10.32;100.00
59513;BME280;45330;51.634;5.562;2023-09-30T01:03:44;102430.31;;;10.34;100.00
59513;BME280;45330;51.634;5.562;2023-09-30T01:06:10;102409.13;;;10.19;100.00
59513;BME280;45330;51.634;5.562;2023-09-30T01:08:35;102417.72;;;10.15;100.00
59513;BME280;45330;51.634;5.562;2023-09-30T01:11:01;102451.81;;;10.27;100.00
59513;BME280;45330;51.634;5.562;2023-09-30T01:13:36;102445.50;;;10.16;100.00
59513;BME280;45330;51.634;5.562;2023-09-30T01:16:06;102441.03;;;10.10;100.00
59513;BME280;45330;51.634;5.562;2023-09-30T01:18:32;102461.16;;;10.19;100.00
59513;BME280;45330;51.634;5.562;2023-09-30T01:21:05;102454.13;;;10.15;100.00
59513;BME280;45330;51.634;5.562;2023-09-30T01:23:32;102457.53;;;10.12;100.00
59513;BME280;45330;51.634;5.562;2023-09-30T01:26:11;102443.28;;;9.93;100.00
59513;BME280;45330;51.634;5.562;2023-09-30T01:28:41;102449.28;;;9.90;100.00
59513;BME280;45330;51.634;5.562;2023-09-30T01:31:06;102471.16;;;10.00;100.00
59513;BME280;45330;51.634;5.562;2023-09-30T01:33:32;102477.31;;;10.04;100.00
59513;BME280;45330;51.634;5.562;2023-09-30T01:35:58;102472.03;;;10.01;100.00
59513;BME280;45330;51.634;5.562;2023-09-30T01:38:25;102443.94;;;9.86;100.00
59513;BME280;45330;51.634;5.562;2023-09-30T01:40:50;102437.78;;;9.81;100.00
59513;BME280;45330;51.634;5.562;2023-09-30T01:43:17;102470.22;;;9.96;100.00
59513;BME280;45330;51.634;5.562;2023-09-30T01:45:43;102469.28;;;9.93;100.00
59513;BME280;45330;51.634;5.562;2023-09-30T01:48:10;102480.69;;;10.00;100.00
59513;BME280;45330;51.634;5.562;2023-09-30T01:50:40;102463.34;;;9.99;100.00
59513;BME280;45330;51.634;5.562;2023-09-30T01:53:06;102450.38;;;10.00;100.00
59513;BME280;45330;51.634;5.562;2023-09-30T01:55:32;102432.78;;;9.90;100.00
59513;BME280;45330;51.634;5.562;2023-09-30T01:57:58;102439.81;;;9.94;100.00
59513;BME280;45330;51.634;5.562;2023-09-30T02:00:24;102445.16;;;10.00;100.00
59513;BME280;45330;51.634;5.562;2023-09-30T02:02:49;102412.66;;;9.81;100.00
59513;BME280;45330;51.634;5.562;2023-09-30T02:05:14;102439.97;;;10.00;100.00
59513;BME280;45330;51.634;5.562;2023-09-30T02:07:40;102453.91;;;10.04;100.00
59513;BME280;45330;51.634;5.562;2023-09-30T02:10:06;102447.00;;;10.04;100.00
59513;BME280;45330;51.634;5.562;2023-09-30T02:12:32;102425.94;;;9.93;100.00
59513;BME280;45330;51.634;5.562;2023-09-30T02:14:58;102445.06;;;9.97;100.00
59513;BME280;45330;51.634;5.562;2023-09-30T02:17:23;102470.44;;;10.06;100.00
59513;BME280;45330;51.634;5.562;2023-09-30T02:19:49;102471.31;;;10.08;100.00
59513;BME280;45330;51.634;5.562;2023-09-30T02:22:15;102475.69;;;10.09;100.00
59513;BME280;45330;51.634;5.562;2023-09-30T02:24:41;102481.81;;;10.12;100.00
59513;BME280;45330;51.634;5.562;2023-09-30T02:27:06;102485.41;;;10.18;100.00
59513;BME280;45330;51.634;5.562;2023-09-30T02:29:31;102479.38;;;10.19;100.00
59513;BME280;45330;51.634;5.562;2023-09-30T02:31:58;102470.63;;;10.15;100.00
59513;BME280;45330;51.634;5.562;2023-09-30T02:34:23;102467.06;;;10.10;100.00
59513;BME280;45330;51.634;5.562;2023-09-30T02:36:49;102467.91;;;10.10;100.00
59513;BME280;45330;51.634;5.562;2023-09-30T02:39:15;102459.28;;;10.11;100.00
59513;BME280;45330;51.634;5.562;2023-09-30T02:41:42;102464.31;;;10.05;100.00
59513;BME280;45330;51.634;5.562;2023-09-30T02:44:07;102423.03;;;9.79;100.00
59513;BME280;45330;51.634;5.562;2023-09-30T02:46:32;102437.94;;;9.88;100.00
59513;BME280;45330;51.634;5.562;2023-09-30T02:48:58;102459.81;;;9.96;100.00
59513;BME280;45330;51.634;5.562;2023-09-30T02:51:23;102447.41;;;9.85;100.00
59513;BME280;45330;51.634;5.562;2023-09-30T02:53:50;102454.44;;;9.89;100.00
59513;BME280;45330;51.634;5.562;2023-09-30T02:56:15;102456.88;;;9.83;100.00
59513;BME280;45330;51.634;5.562;2023-09-30T02:58:41;102438.47;;;9.72;100.00
59513;BME280;45330;51.634;5.562;2023-09-30T03:01:06;102448.13;;;9.77;100.00
59513;BME280;45330;51.634;5.562;2023-09-30T03:03:32;102417.44;;;9.63;100.00
59513;BME280;45330;51.634;5.562;2023-09-30T03:05:59;102449.78;;;9.75;100.00
59513;BME280;45330;51.634;5.562;2023-09-30T03:08:25;102456.69;;;9.73;100.00
59513;BME280;45330;51.634;5.562;2023-09-30T03:10:51;102417.84;;;9.43;100.00
59513;BME280;45330;51.634;5.562;2023-09-30T03:13:17;102465.25;;;9.69;100.00
59513;BME280;45330;51.634;5.562;2023-09-30T03:15:44;102465.22;;;9.68;100.00
59513;BME280;45330;51.634;5.562;2023-09-30T03:18:09;102459.09;;;9.66;100.00
59513;BME280;45330;51.634;5.562;2023-09-30T03:20:35;102447.78;;;9.62;100.00
59513;BME280;45330;51.634;5.562;2023-09-30T03:23:05;102464.47;;;9.72;100.00
59513;BME280;45330;51.634;5.562;2023-09-30T03:25:30;102440.81;;;9.61;100.00
59513;BME280;45330;51.634;5.562;2023-09-30T03:27:56;102450.03;;;9.85;100.00
59513;BME280;45330;51.634;5.562;2023-09-30T03:30:22;102413.47;;;9.78;100.00
59513;BME280;45330;51.634;5.562;2023-09-30T03:32:47;102440.03;;;10.03;100.00
59513;BME280;45330;51.634;5.562;2023-09-30T03:35:13;102421.72;;;9.99;100.00
59513;BME280;45330;51.634;5.562;2023-09-30T03:37:48;102448.94;;;10.15;100.00
59513;BME280;45330;51.634;5.562;2023-09-30T03:40:13;102450.69;;;10.16;100.00
59513;BME280;45330;51.634;5.562;2023-09-30T03:42:46;102450.72;;;10.17;100.00
59513;BME280;45330;51.634;5.562;2023-09-30T03:45:14;102447.22;;;10.17;100.00
59513;BME280;45330;51.634;5.562;2023-09-30T03:47:41;102448.00;;;10.12;100.00
59513;BME280;45330;51.634;5.562;2023-09-30T03:50:07;102454.03;;;10.08;100.00
59513;BME280;45330;51.634;5.562;2023-09-30T03:52:39;102453.03;;;10.03;100.00
59513;BME280;45330;51.634;5.562;2023-09-30T03:55:12;102429.28;;;9.88;100.00
59513;BME280;45330;51.634;5.562;2023-09-30T03:57:39;102423.16;;;9.86;100.00
59513;BME280;45330;51.634;5.562;2023-09-30T04:00:05;102445.16;;;10.00;100.00
59513;BME280;45330;51.634;5.562;2023-09-30T04:02:32;102421.41;;;9.85;100.00
59513;BME280;45330;51.634;5.562;2023-09-30T04:04:57;102441.63;;;9.98;100.00
59513;BME280;45330;51.634;5.562;2023-09-30T04:07:24;102442.56;;;10.00;100.00
59513;BME280;45330;51.634;5.562;2023-09-30T04:09:54;102437.38;;;10.00;100.00
59513;BME280;45330;51.634;5.562;2023-09-30T04:12:20;102445.16;;;10.00;100.00
59513;BME280;45330;51.634;5.562;2023-09-30T04:14:45;102427.53;;;9.88;100.00
59513;BME280;45330;51.634;5.562;2023-09-30T04:17:10;102445.03;;;9.95;100.00
59513;BME280;45330;51.634;5.562;2023-09-30T04:19:36;102446.91;;;10.01;100.00
59513;BME280;45330;51.634;5.562;2023-09-30T04:22:01;102441.00;;;10.08;100.00
59513;BME280;45330;51.634;5.562;2023-09-30T04:24:26;102448.75;;;10.07;100.00
59513;BME280;45330;51.634;5.562;2023-09-30T04:26:54;102435.63;;;10.01;100.00
59513;BME280;45330;51.634;5.562;2023-09-30T04:29:22;102433.69;;;9.90;100.00
59513;BME280;45330;51.634;5.562;2023-09-30T04:31:48;102429.19;;;9.83;100.00
59513;BME280;45330;51.634;5.562;2023-09-30T04:34:14;102451.06;;;9.93;100.00
59513;BME280;45330;51.634;5.562;2023-09-30T04:36:40;102450.22;;;9.94;100.00
59513;BME280;45330;51.634;5.562;2023-09-30T04:39:05;102449.28;;;9.90;100.00
59513;BME280;45330;51.634;5.562;2023-09-30T04:41:31;102441.28;;;9.83;100.00
59513;BME280;45330;51.634;5.562;2023-09-30T04:43:56;102435.88;;;9.72;100.00
59513;BME280;45330;51.634;5.562;2023-09-30T04:46:22;102456.69;;;9.73;100.00
59513;BME280;45330;51.634;5.562;2023-09-30T04:48:48;102470.63;;;9.77;100.00
59513;BME280;45330;51.634;5.562;2023-09-30T04:51:14;102455.47;;;9.59;100.00
59513;BME280;45330;51.634;5.562;2023-09-30T04:53:41;102490.47;;;9.72;100.00
59513;BME280;45330;51.634;5.562;2023-09-30T04:56:07;102450.91;;;9.49;100.00
59513;BME280;45330;51.634;5.562;2023-09-30T04:58:32;102473.91;;;9.68;100.00
59513;BME280;45330;51.634;5.562;2023-09-30T05:00:57;102470.31;;;9.65;100.00
59513;BME280;45330;51.634;5.562;2023-09-30T05:03:24;102450.88;;;9.47;100.00
59513;BME280;45330;51.634;5.562;2023-09-30T05:05:51;102449.94;;;9.45;100.00
59513;BME280;45330;51.634;5.562;2023-09-30T05:08:18;102480.59;;;9.58;100.00
59513;BME280;45330;51.634;5.562;2023-09-30T05:10:44;102480.53;;;9.55;100.00
59513;BME280;45330;51.634;5.562;2023-09-30T05:13:09;102464.72;;;9.48;100.00
59513;BME280;45330;51.634;5.562;2023-09-30T05:15:35;102485.81;;;9.60;100.00
59513;BME280;45330;51.634;5.562;2023-09-30T05:18:01;102484.16;;;9.62;100.00
59513;BME280;45330;51.634;5.562;2023-09-30T05:20:27;102483.22;;;9.60;100.00
59513;BME280;45330;51.634;5.562;2023-09-30T05:22:52;102462.06;;;9.44;100.00
59513;BME280;45330;51.634;5.562;2023-09-30T05:25:17;102487.59;;;9.61;100.00
59513;BME280;45330;51.634;5.562;2023-09-30T05:27:44;102490.22;;;9.63;100.00
59513;BME280;45330;51.634;5.562;2023-09-30T05:30:09;102491.19;;;9.66;100.00
59513;BME280;45330;51.634;5.562;2023-09-30T05:32:37;102498.16;;;9.69;100.00
59513;BME280;45330;51.634;5.562;2023-09-30T05:35:04;102468.41;;;9.56;100.00
59513;BME280;45330;51.634;5.562;2023-09-30T05:37:30;102457.09;;;9.54;100.00
59513;BME280;45330;51.634;5.562;2023-09-30T05:39:56;102496.53;;;9.72;100.00
59513;BME280;45330;51.634;5.562;2023-09-30T05:42:21;102499.16;;;9.74;100.00
59513;BME280;45330;51.634;5.562;2023-09-30T05:44:47;102494.00;;;9.75;100.00
59513;BME280;45330;51.634;5.562;2023-09-30T05:47:13;102497.53;;;9.77;100.00
59513;BME280;45330;51.634;5.562;2023-09-30T05:49:40;102491.25;;;9.69;100.00
59513;BME280;45330;51.634;5.562;2023-09-30T05:52:06;102496.56;;;9.74;100.00
59513;BME280;45330;51.634;5.562;2023-09-30T05:54:32;102474.66;;;9.64;100.00
59513;BME280;45330;51.634;5.562;2023-09-30T05:56:57;102496.81;;;9.85;100.00
59513;BME280;45330;51.634;5.562;2023-09-30T05:59:23;102483.09;;;9.90;100.00
59513;BME280;45330;51.634;5.562;2023-09-30T06:01:50;102497.38;;;10.09;100.00
59513;BME280;45330;51.634;5.562;2023-09-30T06:04:15;102494.00;;;10.13;100.00
59513;BME280;45330;51.634;5.562;2023-09-30T06:06:41;102480.91;;;10.09;100.00
59513;BME280;45330;51.634;5.562;2023-09-30T06:09:08;102502.94;;;10.26;100.00
59513;BME280;45330;51.634;5.562;2023-09-30T06:11:33;102481.97;;;10.19;100.00
59513;BME280;45330;51.634;5.562;2023-09-30T06:13:59;102494.50;;;10.35;100.00
59513;BME280;45330;51.634;5.562;2023-09-30T06:16:26;102481.53;;;10.37;100.00
59513;BME280;45330;51.634;5.562;2023-09-30T06:18:52;102487.81;;;10.46;100.00
59513;BME280;45330;51.634;5.562;2023-09-30T06:21:18;102501.00;;;10.56;100.00
59513;BME280;45330;51.634;5.562;2023-09-30T06:23:48;102507.19;;;10.61;100.00
59513;BME280;45330;51.634;5.562;2023-09-30T06:26:14;102503.84;;;10.67;100.00
59513;BME280;45330;51.634;5.562;2023-09-30T06:28:42;102508.28;;;10.72;100.00
59513;BME280;45330;51.634;5.562;2023-09-30T06:31:08;102491.88;;;10.76;100.00
59513;BME280;45330;51.634;5.562;2023-09-30T06:33:37;102488.50;;;10.80;100.00
59513;BME280;45330;51.634;5.562;2023-09-30T06:36:11;102464.91;;;10.74;100.00
59513;BME280;45330;51.634;5.562;2023-09-30T06:38:39;102495.63;;;10.91;100.00
59513;BME280;45330;51.634;5.562;2023-09-30T06:41:04;102479.84;;;10.83;100.00
59513;BME280;45330;51.634;5.562;2023-09-30T06:43:30;102507.06;;;10.99;100.00
59513;BME280;45330;51.634;5.562;2023-09-30T06:45:57;102497.47;;;10.98;100.00
59513;BME280;45330;51.634;5.562;2023-09-30T06:48:22;102503.50;;;10.95;100.00
59513;BME280;45330;51.634;5.562;2023-09-30T06:50:49;102512.22;;;10.96;100.00
59513;BME280;45330;51.634;5.562;2023-09-30T06:53:15;102508.66;;;10.92;100.00
59513;BME280;45330;51.634;5.562;2023-09-30T06:55:42;102521.72;;;10.94;100.00
59513;BME280;45330;51.634;5.562;2023-09-30T06:58:08;102519.03;;;10.89;100.00
59513;BME280;45330;51.634;5.562;2023-09-30T07:00:36;102544.50;;;11.04;100.00
59513;BME280;45330;51.634;5.562;2023-09-30T07:03:02;102528.72;;;10.96;100.00
59513;BME280;45330;51.634;5.562;2023-09-30T07:05:27;102535.78;;;11.02;100.00
59513;BME280;45330;51.634;5.562;2023-09-30T07:07:55;102564.06;;;11.28;100.00
59513;BME280;45330;51.634;5.562;2023-09-30T07:10:21;102538.75;;;11.22;100.00
59513;BME280;45330;51.634;5.562;2023-09-30T07:12:46;102554.72;;;11.39;100.00
59513;BME280;45330;51.634;5.562;2023-09-30T07:15:12;102536.34;;;11.33;100.00
59513;BME280;45330;51.634;5.562;2023-09-30T07:17:39;102541.72;;;11.42;100.00
59513;BME280;45330;51.634;5.562;2023-09-30T07:20:06;102561.97;;;11.57;100.00
59513;BME280;45330;51.634;5.562;2023-09-30T07:22:32;102550.84;;;11.66;100.00
59513;BME280;45330;51.634;5.562;2023-09-30T07:24:58;102550.94;;;11.72;100.00
59513;BME280;45330;51.634;5.562;2023-09-30T07:27:24;102541.34;;;11.73;100.00
59513;BME280;45330;51.634;5.562;2023-09-30T07:29:50;102551.38;;;11.97;100.00
59513;BME280;45330;51.634;5.562;2023-09-30T07:32:16;102584.03;;;12.30;100.00
59513;BME280;45330;51.634;5.562;2023-09-30T07:34:41;102591.13;;;12.40;100.00
59513;BME280;45330;51.634;5.562;2023-09-30T07:37:07;102564.97;;;12.35;100.00
59513;BME280;45330;51.634;5.562;2023-09-30T07:39:33;102593.88;;;12.49;100.00
59513;BME280;45330;51.634;5.562;2023-09-30T07:42:00;102598.31;;;12.55;100.00
59513;BME280;45330;51.634;5.562;2023-09-30T07:44:26;102582.66;;;12.55;100.00
59513;BME280;45330;51.634;5.562;2023-09-30T07:46:51;102594.97;;;12.67;100.00
59513;BME280;45330;51.634;5.562;2023-09-30T07:49:17;102597.69;;;12.72;100.00
59513;BME280;45330;51.634;5.562;2023-09-30T07:51:42;102608.22;;;12.81;100.00
59513;BME280;45330;51.634;5.562;2023-09-30T07:54:08;102589.09;;;12.83;100.00
59513;BME280;45330;51.634;5.562;2023-09-30T07:56:33;102605.09;;;13.08;100.00
59513;BME280;45330;51.634;5.562;2023-09-30T07:58:59;102578.16;;;13.12;100.00
59513;BME280;45330;51.634;5.562;2023-09-30T08:01:25;102572.19;;;13.27;100.00
59513;BME280;45330;51.634;5.562;2023-09-30T08:03:50;102562.81;;;13.43;100.00
59513;BME280;45330;51.634;5.562;2023-09-30T08:06:15;102574.28;;;13.58;100.00
59513;BME280;45330;51.634;5.562;2023-09-30T08:08:41;102596.22;;;13.77;100.00
59513;BME280;45330;51.634;5.562;2023-09-30T08:11:06;102587.53;;;13.82;100.00
59513;BME280;45330;51.634;5.562;2023-09-30T08:13:32;102584.09;;;13.88;100.00
59513;BME280;45330;51.634;5.562;2023-09-30T08:16:01;102573.63;;;13.88;100.00
59513;BME280;45330;51.634;5.562;2023-09-30T08:18:26;102559.69;;;13.87;100.00
59513;BME280;45330;51.634;5.562;2023-09-30T08:20:51;102564.91;;;13.87;100.00
59513;BME280;45330;51.634;5.562;2023-09-30T08:23:17;102571.06;;;13.89;100.00
59513;BME280;45330;51.634;5.562;2023-09-30T08:25:42;102582.50;;;14.02;100.00
59513;BME280;45330;51.634;5.562;2023-09-30T08:28:08;102562.41;;;14.01;100.00
59513;BME280;45330;51.634;5.562;2023-09-30T08:30:37;102554.59;;;14.06;100.00
59513;BME280;45330;51.634;5.562;2023-09-30T08:33:03;102576.53;;;14.23;100.00
59513;BME280;45330;51.634;5.562;2023-09-30T08:35:29;102569.63;;;14.33;100.00
59513;BME280;45330;51.634;5.562;2023-09-30T08:37:55;102570.47;;;14.35;100.00
59513;BME280;45330;51.634;5.562;2023-09-30T08:40:21;102577.50;;;14.44;100.00
59513;BME280;45330;51.634;5.562;2023-09-30T08:42:52;102578.41;;;14.45;100.00
59513;BME280;45330;51.634;5.562;2023-09-30T08:45:18;102571.41;;;14.48;100.00
59513;BME280;45330;51.634;5.562;2023-09-30T08:47:44;102580.19;;;14.53;100.00
59513;BME280;45330;51.634;5.562;2023-09-30T08:50:11;102574.09;;;14.53;100.00
59513;BME280;45330;51.634;5.562;2023-09-30T08:52:41;102555.75;;;14.56;100.00
59513;BME280;45330;51.634;5.562;2023-09-30T08:55:07;102554.00;;;14.59;100.00
59513;BME280;45330;51.634;5.562;2023-09-30T08:57:37;102562.81;;;14.68;100.00
59513;BME280;45330;51.634;5.562;2023-09-30T09:00:05;102556.72;;;14.70;100.00
59513;BME280;45330;51.634;5.562;2023-09-30T09:02:34;102579.50;;;14.88;100.00
59513;BME280;45330;51.634;5.562;2023-09-30T09:05:00;102569.88;;;14.87;100.00
59513;BME280;45330;51.634;5.562;2023-09-30T09:07:25;102584.78;;;14.98;100.00
59513;BME280;45330;51.634;5.562;2023-09-30T09:10:08;102590.00;;;14.98;100.00
59513;BME280;45330;51.634;5.562;2023-09-30T09:12:36;102592.63;;;14.98;100.00
59513;BME280;45330;51.634;5.562;2023-09-30T09:15:02;102582.13;;;14.95;100.00
59513;BME280;45330;51.634;5.562;2023-09-30T09:17:43;102594.44;;;15.05;100.00
59513;BME280;45330;51.634;5.562;2023-09-30T09:20:10;102597.91;;;15.04;100.00
59513;BME280;45330;51.634;5.562;2023-09-30T09:25:05;102605.84;;;15.15;100.00
59513;BME280;45330;51.634;5.562;2023-09-30T09:27:33;102614.59;;;15.27;100.00
59513;BME280;45330;51.634;5.562;2023-09-30T09:30:25;102628.63;;;15.42;100.00
59513;BME280;45330;51.634;5.562;2023-09-30T09:35:26;102633.88;;;15.43;100.00
59513;BME280;45330;51.634;5.562;2023-09-30T09:38:04;102661.00;;;15.55;100.00
59513;BME280;45330;51.634;5.562;2023-09-30T09:40:32;102654.03;;;15.58;100.00
59513;BME280;45330;51.634;5.562;2023-09-30T09:42:58;102664.53;;;15.65;100.00
59513;BME280;45330;51.634;5.562;2023-09-30T09:45:26;102636.53;;;15.60;100.00
59513;BME280;45330;51.634;5.562;2023-09-30T09:47:53;102634.78;;;15.63;100.00
59513;BME280;45330;51.634;5.562;2023-09-30T09:50:20;102650.53;;;15.73;100.00
59513;BME280;45330;51.634;5.562;2023-09-30T09:52:52;102633.94;;;15.67;100.00
59513;BME280;45330;51.634;5.562;2023-09-30T09:55:22;102637.41;;;15.70;100.00
59513;BME280;45330;51.634;5.562;2023-09-30T09:57:48;102645.34;;;15.86;100.00
59513;BME280;45330;51.634;5.562;2023-09-30T10:00:24;102660.22;;;15.93;100.00
59513;BME280;45330;51.634;5.562;2023-09-30T10:02:51;102638.31;;;15.86;100.00
59513;BME280;45330;51.634;5.562;2023-09-30T10:05:18;102646.22;;;15.99;100.00
59513;BME280;45330;51.634;5.562;2023-09-30T10:08:04;102648.84;;;16.05;100.00
59513;BME280;45330;51.634;5.562;2023-09-30T10:10:35;102654.09;;;16.11;100.00
59513;BME280;45330;51.634;5.562;2023-09-30T10:13:01;102672.47;;;16.16;100.00
59513;BME280;45330;51.634;5.562;2023-09-30T10:20:30;102654.09;;;16.26;100.00
59513;BME280;45330;51.634;5.562;2023-09-30T10:23:18;102665.47;;;16.38;100.00
59513;BME280;45330;51.634;5.562;2023-09-30T10:25:48;102656.72;;;16.37;100.00
59513;BME280;45330;51.634;5.562;2023-09-30T10:28:51;102652.31;;;16.44;100.00
59513;BME280;45330;51.634;5.562;2023-09-30T10:31:20;102625.19;;;16.37;100.00
59513;BME280;45330;51.634;5.562;2023-09-30T10:36:31;102606.75;;;16.45;100.00
59513;BME280;45330;51.634;5.562;2023-09-30T10:38:57;102620.75;;;16.62;100.00
59513;BME280;45330;51.634;5.562;2023-09-30T10:41:49;102614.63;;;16.67;100.00
59513;BME280;45330;51.634;5.562;2023-09-30T10:47:45;102621.59;;;16.66;100.00
59513;BME280;45330;51.634;5.562;2023-09-30T10:49:49;102605.81;;;16.69;100.00
59513;BME280;45330;51.634;5.562;2023-09-30T10:52:22;102599.69;;;16.69;100.00
59513;BME280;45330;51.634;5.562;2023-09-30T10:54:50;102610.16;;;16.93;100.00
59513;BME280;45330;51.634;5.562;2023-09-30T10:57:26;102616.22;;;17.08;100.00
59513;BME280;45330;51.634;5.562;2023-09-30T11:00:11;102591.69;;;17.09;100.00
59513;BME280;45330;51.634;5.562;2023-09-30T11:02:50;102590.75;;;17.16;100.00
59513;BME280;45330;51.634;5.562;2023-09-30T11:05:17;102589.81;;;17.25;100.00
59513;BME280;45330;51.634;5.562;2023-09-30T11:07:44;102609.94;;;17.32;100.00
59513;BME280;45330;51.634;5.562;2023-09-30T11:10:16;102599.53;;;17.15;100.00
59513;BME280;45330;51.634;5.562;2023-09-30T11:12:53;102609.16;;;17.16;100.00
59513;BME280;45330;51.634;5.562;2023-09-30T11:15:19;102602.09;;;17.21;100.00
59513;BME280;45330;51.634;5.562;2023-09-30T11:17:44;102596.91;;;17.13;100.00
59513;BME280;45330;51.634;5.562;2023-09-30T11:20:10;102602.06;;;17.29;100.00
59513;BME280;45330;51.634;5.562;2023-09-30T11:22:36;102616.06;;;17.36;100.00
59513;BME280;45330;51.634;5.562;2023-09-30T11:25:01;102606.47;;;17.28;100.00
59513;BME280;45330;51.634;5.562;2023-09-30T11:27:28;102609.09;;;17.28;100.00
59513;BME280;45330;51.634;5.562;2023-09-30T11:29:54;102598.44;;;17.44;100.00
59513;BME280;45330;51.634;5.562;2023-09-30T11:32:27;102604.53;;;17.58;100.00
59513;BME280;45330;51.634;5.562;2023-09-30T11:34:54;102567.78;;;17.43;100.00
59513;BME280;45330;51.634;5.562;2023-09-30T11:37:19;102581.66;;;17.62;100.00
59513;BME280;45330;51.634;5.562;2023-09-30T11:39:44;102581.44;;;17.93;100.00
59513;BME280;45330;51.634;5.562;2023-09-30T11:42:17;102549.78;;;17.96;100.00
59513;BME280;45330;51.634;5.562;2023-09-30T11:44:46;102565.63;;;17.94;100.00
59513;BME280;45330;51.634;5.562;2023-09-30T11:47:13;102569.91;;;18.08;100.00
59513;BME280;45330;51.634;5.562;2023-09-30T11:49:42;102559.31;;;18.11;100.00
59513;BME280;45330;51.634;5.562;2023-09-30T11:52:13;102564.53;;;18.15;100.00
59513;BME280;45330;51.634;5.562;2023-09-30T11:54:43;102565.31;;;18.24;100.00
59513;BME280;45330;51.634;5.562;2023-09-30T11:57:11;102573.91;;;18.43;100.00
59513;BME280;45330;51.634;5.562;2023-09-30T11:59:40;102578.25;;;18.48;100.00
59513;BME280;45330;51.634;5.562;2023-09-30T12:02:09;102551.22;;;18.29;100.00
59513;BME280;45330;51.634;5.562;2023-09-30T12:04:35;102581.78;;;18.46;100.00
59513;BME280;45330;51.634;5.562;2023-09-30T12:07:01;102593.16;;;18.51;100.00
59513;BME280;45330;51.634;5.562;2023-09-30T12:09:27;102568.69;;;18.40;100.00
59513;BME280;45330;51.634;5.562;2023-09-30T12:11:54;102573.09;;;18.36;100.00
59513;BME280;45330;51.634;5.562;2023-09-30T12:14:20;102584.47;;;18.43;100.00
59513;BME280;45330;51.634;5.562;2023-09-30T12:16:47;102573.16;;;18.31;100.00
59513;BME280;45330;51.634;5.562;2023-09-30T12:19:18;102569.63;;;18.34;100.00
59513;BME280;45330;51.634;5.562;2023-09-30T12:21:45;102561.72;;;18.32;100.00
59513;BME280;45330;51.634;5.562;2023-09-30T12:24:12;102574.72;;;18.48;100.00
59513;BME280;45330;51.634;5.562;2023-09-30T12:26:48;102564.94;;;18.61;100.00
59513;BME280;45330;51.634;5.562;2023-09-30T12:29:14;102557.78;;;18.71;100.00
59513;BME280;45330;51.634;5.562;2023-09-30T12:31:43;102528.75;;;18.69;100.00
59513;BME280;45330;51.634;5.562;2023-09-30T12:34:08;102553.22;;;18.83;100.00
59513;BME280;45330;51.634;5.562;2023-09-30T12:36:34;102543.53;;;18.84;100.00
59513;BME280;45330;51.634;5.562;2023-09-30T12:38:59;102540.06;;;18.79;90.21
59513;BME280;45330;51.634;5.562;2023-09-30T12:41:24;102508.53;;;18.71;93.05
59513;BME280;45330;51.634;5.562;2023-09-30T12:43:50;102530.31;;;18.85;94.94
59513;BME280;45330;51.634;5.562;2023-09-30T12:46:15;102518.97;;;18.79;88.50
59513;BME280;45330;51.634;5.562;2023-09-30T12:48:41;102519.81;;;18.82;90.92
59513;BME280;45330;51.634;5.562;2023-09-30T12:51:07;102537.31;;;18.90;84.11
59513;BME280;45330;51.634;5.562;2023-09-30T12:53:34;102536.34;;;18.95;95.12
59513;BME280;45330;51.634;5.562;2023-09-30T12:56:00;102521.41;;;18.94;89.81
59513;BME280;45330;51.634;5.562;2023-09-30T12:58:25;102532.44;;;19.21;83.09